This is the latest recevied weather packets stored in our database for station/object KB9GXK. If no packets are shown the sender has not sent any weather packets the latest 1 day(s).
| Time | Temp. | Humidity | Pressure | Rain* | Wind** | Luminosity | Snow |
|---|---|---|---|---|---|---|---|
| 1778100890 | 13.33° C | 35% | 1013.2 hPa | 0 mm | - | 224 W/m² | - |
| 1778098163 | 15° C | 32% | 1013.4 hPa | 0 mm | - | 235 W/m² | - |
| 1778097556 | 13.89° C | 34% | 1013.7 hPa | 0 mm | - | 252 W/m² | - |
| 1778096344 | 13.33° C | 36% | 1013.8 hPa | 0 mm | - | 256 W/m² | - |
| 1778096041 | 13.33° C | 35% | 1013.8 hPa | 0 mm | - | 219 W/m² | - |
| 1778095737 | 13.89° C | 34% | 1013.8 hPa | 0 mm | - | 224 W/m² | - |
| 1778095434 | 15° C | 34% | 1013.6 hPa | 0 mm | - | 254 W/m² | - |
| 1778093009 | 13.33° C | 38% | 1014 hPa | 0 mm | - | 278 W/m² | - |
| 1778092401 | 13.89° C | 34% | 1013.9 hPa | 0 mm | - | 261 W/m² | - |
| 1778092099 | 13.33° C | 36% | 1013.7 hPa | 0 mm | - | 295 W/m² | - |
| 1778091494 | 13.89° C | 36% | 1013.7 hPa | 0 mm | - | 720 W/m² | - |
| 1778090584 | 13.33° C | 35% | 1013.6 hPa | 0 mm | - | 349 W/m² | - |
| 1778089372 | 14.44° C | 33% | 1013.9 hPa | 0 mm | - | 287 W/m² | - |
| 1778088766 | 13.33° C | 36% | 1013.8 hPa | 0 mm | - | 694 W/m² | - |
| 1778088463 | 13.89° C | 35% | 1014 hPa | 0 mm | - | 326 W/m² | - |
| 1778087554 | 13.89° C | 33% | 1014.2 hPa | 0 mm | - | 295 W/m² | - |
| 1778086948 | 13.89° C | 34% | 1014.2 hPa | 0 mm | - | 363 W/m² | - |
| 1778085129 | 12.22° C | 37% | 1014.2 hPa | 0 mm | - | 453 W/m² | - |
| 1778084523 | 12.22° C | 37% | 1014.3 hPa | 0 mm | - | 282 W/m² | - |
| 1778080358 | 12.78° C | 39% | 1014.2 hPa | 0 mm | - | 528 W/m² | - |
| 1778080054 | 12.78° C | 39% | 1014.2 hPa | 0 mm | - | 565 W/m² | - |
| 1778077633 | 12.22° C | 41% | 1014.5 hPa | 0 mm | - | 334 W/m² | - |
| 1778075817 | 11.67° C | 41% | 1014.4 hPa | 0 mm | - | 383 W/m² | - |
| 1778074906 | 10.56° C | 44% | 1014 hPa | 0 mm | - | 336 W/m² | - |
| 1778073694 | 10° C | 44% | 1014.1 hPa | 0 mm | - | 93 W/m² | - |
* Rain latest hour (hover to see other rain measurements)
** Current wind speed in m/s (hover to see current wind gust speed)